Haysville, Kansas
Current Conditions -  °F | °C
As of 11:58 AM on Wednesday 28 Jan 2015 (Local Time) from KIAB Reporting Station
Few Clouds Few Clouds  
Wind Chill: 69°   Ceiling: Unl
Heat Index: 69°   Visibility: 10mi
Dew Point: 39°   Wind: 17mph
Humidity: 34%   Direction: 210°SSW
Pressure: 29.85"   Gusts: NA
Location:  37.56°N, 97.35°W
Report Text: KIAB 281758Z AUTO 21015KT 10SM FEW190 21/04 A2985 RMK AO2 SLP106 T02060041 10206 20074 57019
Loading
Personal Weather Stations






























Interactive Weather Map New forecast layout! Learn more

10-Day Weather Forecast

Advertisements
Track Severe Weather on mobile